createdAt,value
2022-07-29T00:00:00.335Z,99987.84
2022-07-29T00:02:30.528Z,99991.72
2022-07-29T00:04:59.730Z,99997.63
2022-07-29T00:07:28.652Z,99914.38
2022-07-29T00:09:57.257Z,99911.22
2022-07-29T00:12:27.590Z,99987.81
2022-07-29T00:15:02.650Z,99966.44
2022-07-29T00:17:42.545Z,99968.50
2022-07-29T00:20:24.552Z,99907.94
2022-07-29T00:22:58.069Z,99943.41
2022-07-29T00:25:26.831Z,99880.63
2022-07-29T00:27:57.883Z,99880.31
2022-07-29T00:30:26.462Z,99946.75
2022-07-29T00:32:56.629Z,99963.78
2022-07-29T00:35:42.861Z,99951.72
2022-07-29T00:38:12.953Z,99878.13
2022-07-29T00:40:49.542Z,99928.31
2022-07-29T00:43:19.363Z,99953.34
2022-07-29T00:45:47.966Z,99972.22
2022-07-29T00:48:22.436Z,99876.16
2022-07-29T00:50:52.348Z,99855.59
2022-07-29T00:53:22.422Z,99978.09
2022-07-29T00:55:51.057Z,99980.69
2022-07-29T00:58:21.131Z,99904.09
2022-07-29T01:00:54.652Z,99956.50
2022-07-29T01:03:24.763Z,99900.31
2022-07-29T01:05:53.986Z,99962.16
2022-07-29T01:08:26.157Z,99960.19
2022-07-29T01:10:57.676Z,99962.81
2022-07-29T01:13:29.084Z,99957.50
2022-07-29T01:16:02.439Z,99846.72
2022-07-29T01:18:40.424Z,99878.47
2022-07-29T01:21:29.902Z,99961.03
2022-07-29T01:24:18.421Z,99878.03
2022-07-29T01:26:51.337Z,99963.50
2022-07-29T01:29:38.569Z,99940.09
2022-07-29T01:32:27.802Z,99960.19
2022-07-29T01:35:05.888Z,99894.34
2022-07-29T01:37:49.594Z,99939.13
2022-07-29T01:40:38.220Z,99970.97
2022-07-29T01:43:15.864Z,99961.53
2022-07-29T01:45:50.429Z,99898.91
2022-07-29T01:48:23.764Z,99963.03
2022-07-29T01:51:01.255Z,99951.72
2022-07-29T01:53:38.157Z,99869.06
2022-07-29T01:56:08.848Z,99955.75
2022-07-29T01:58:41.257Z,99919.34
2022-07-29T02:01:13.366Z,99972.91
2022-07-29T02:03:46.161Z,99899.31
2022-07-29T02:06:20.136Z,99899.78
2022-07-29T02:08:52.398Z,99957.16
2022-07-29T02:11:21.349Z,99830.66
2022-07-29T02:13:56.126Z,99889.63
2022-07-29T02:16:31.286Z,99922.94
2022-07-29T02:19:03.071Z,99890.41
2022-07-29T02:21:34.392Z,99902.53
2022-07-29T02:24:05.156Z,99949.94
2022-07-29T02:26:35.907Z,99955.00
2022-07-29T02:29:04.740Z,99941.34
2022-07-29T02:31:36.789Z,99954.16
2022-07-29T02:34:09.466Z,99974.31
2022-07-29T02:36:39.244Z,99935.78
2022-07-29T02:39:10.815Z,99962.66
2022-07-29T02:41:47.856Z,99946.09
2022-07-29T02:44:18.652Z,99977.72
2022-07-29T02:46:55.891Z,99975.53
2022-07-29T02:49:36.631Z,99983.97
2022-07-29T02:52:08.611Z,99978.41
2022-07-29T02:54:46.007Z,99951.50
2022-07-29T02:57:23.364Z,99888.66
2022-07-29T03:00:03.824Z,99920.03
2022-07-29T03:02:36.514Z,99908.28
2022-07-29T03:05:06.806Z,99911.75
2022-07-29T03:07:39.460Z,99896.03
2022-07-29T03:10:19.311Z,99828.28
2022-07-29T03:12:49.194Z,99994.75
2022-07-29T03:15:21.641Z,100006.97
2022-07-29T03:17:55.008Z,99851.75
2022-07-29T03:20:26.120Z,99931.66
2022-07-29T03:22:54.766Z,99890.50
2022-07-29T03:25:49.856Z,99996.00
2022-07-29T03:28:18.545Z,100005.53
2022-07-29T03:30:50.073Z,99988.09
2022-07-29T03:33:22.654Z,99918.31
2022-07-29T03:35:51.199Z,99974.59
2022-07-29T03:38:19.967Z,99898.56
2022-07-29T03:41:03.934Z,99910.69
2022-07-29T03:43:34.597Z,99983.88
2022-07-29T03:46:09.310Z,99984.09
2022-07-29T03:48:49.077Z,99907.28
2022-07-29T03:51:18.106Z,99993.97
2022-07-29T03:53:46.869Z,99893.94
2022-07-29T03:56:20.538Z,99895.59
2022-07-29T03:58:54.528Z,99984.16
2022-07-29T04:04:38.427Z,99916.97
2022-07-29T04:07:08.826Z,99996.78
2022-07-29T04:09:39.262Z,99996.81
2022-07-29T04:12:08.421Z,99909.03
2022-07-29T04:14:37.601Z,99831.84
2022-07-29T04:17:09.138Z,99999.31
2022-07-29T04:19:39.061Z,100001.28
2022-07-29T04:22:08.054Z,99967.81
2022-07-29T04:24:37.170Z,99902.31
2022-07-29T04:27:05.898Z,100003.06
2022-07-29T04:29:34.510Z,99940.41
2022-07-29T04:32:05.607Z,99996.94
2022-07-29T04:34:34.249Z,99993.28
2022-07-29T04:37:04.927Z,99997.25
2022-07-29T04:39:33.518Z,99928.94
2022-07-29T04:42:02.287Z,99969.31
2022-07-29T04:44:31.282Z,99997.00
2022-07-29T04:47:06.343Z,100001.28
2022-07-29T04:49:34.916Z,100004.81
2022-07-29T04:52:05.691Z,99884.47
2022-07-29T04:54:34.437Z,99918.84
2022-07-29T04:57:04.591Z,99921.00
2022-07-29T04:59:42.111Z,99959.28
2022-07-29T05:02:13.058Z,99954.88
2022-07-29T05:04:46.495Z,99973.44
2022-07-29T05:07:16.577Z,100032.66
2022-07-29T05:09:45.187Z,100001.88
2022-07-29T05:12:13.725Z,100031.50
2022-07-29T05:14:42.307Z,99954.47
2022-07-29T05:17:10.886Z,100039.38
2022-07-29T05:19:39.833Z,100040.34
2022-07-29T05:22:08.733Z,99962.34
2022-07-29T05:24:38.821Z,100003.03
2022-07-29T05:27:07.325Z,100025.06
2022-07-29T05:29:44.070Z,100036.44
2022-07-29T05:32:14.118Z,100047.66
2022-07-29T05:34:50.200Z,99977.13
2022-07-29T05:37:19.666Z,100040.53
2022-07-29T05:39:56.135Z,100031.81
2022-07-29T05:42:25.384Z,100045.50
2022-07-29T05:44:55.814Z,100044.91
2022-07-29T05:47:24.628Z,99982.25
2022-07-29T05:49:53.353Z,100050.94
2022-07-29T05:52:25.041Z,99939.13
2022-07-29T05:54:55.262Z,100039.72
2022-07-29T05:57:26.084Z,100052.34
2022-07-29T05:59:55.172Z,100051.28
2022-07-29T06:02:23.799Z,100055.97
2022-07-29T06:04:54.990Z,100029.19
2022-07-29T06:07:50.949Z,99892.19
2022-07-29T06:10:30.757Z,99962.19
2022-07-29T06:12:59.391Z,100041.03
2022-07-29T06:15:28.233Z,100011.66
2022-07-29T06:17:59.840Z,99944.97
2022-07-29T06:20:31.553Z,99969.41
2022-07-29T06:23:05.725Z,99959.78
2022-07-29T06:25:36.964Z,99970.63
2022-07-29T06:28:05.947Z,99971.25
2022-07-29T06:30:34.738Z,100019.38
2022-07-29T06:33:03.428Z,100003.22
2022-07-29T06:35:42.139Z,100043.75
2022-07-29T06:38:31.816Z,100045.22
2022-07-29T06:41:05.045Z,100054.84
2022-07-29T06:43:52.376Z,100056.81
2022-07-29T06:46:24.411Z,100065.53
2022-07-29T06:48:54.213Z,100053.88
2022-07-29T06:51:24.110Z,99933.56
2022-07-29T06:53:59.544Z,100046.47
2022-07-29T06:56:40.251Z,100027.16
2022-07-29T06:59:11.153Z,100053.88
2022-07-29T07:01:42.083Z,100067.78
2022-07-29T07:04:14.784Z,99968.75
2022-07-29T07:06:43.792Z,100060.97
2022-07-29T07:09:12.522Z,100019.19
2022-07-29T07:11:42.516Z,100013.47
2022-07-29T07:14:11.141Z,100009.66
2022-07-29T07:16:39.774Z,100003.06
2022-07-29T07:19:20.794Z,99962.59
2022-07-29T07:21:51.263Z,100039.13
2022-07-29T07:24:20.254Z,100075.09
2022-07-29T07:26:50.363Z,100081.00
2022-07-29T07:29:19.137Z,100027.16
2022-07-29T07:31:47.997Z,100005.19
2022-07-29T07:34:16.993Z,100057.41
2022-07-29T07:36:57.086Z,100007.00
2022-07-29T07:39:29.760Z,100023.38
2022-07-29T07:41:59.874Z,100059.41
2022-07-29T07:44:28.711Z,100024.34
2022-07-29T07:47:03.766Z,99990.31
2022-07-29T07:49:37.391Z,99973.50
2022-07-29T07:52:06.614Z,100054.75
2022-07-29T07:54:37.012Z,100045.84
2022-07-29T07:57:12.413Z,100064.09
2022-07-29T07:59:48.547Z,99991.59
2022-07-29T08:02:17.530Z,100064.84
2022-07-29T08:04:46.283Z,100057.50
2022-07-29T08:07:23.504Z,100058.44
2022-07-29T08:09:57.026Z,99940.97
2022-07-29T08:12:27.916Z,100026.75
2022-07-29T08:14:56.746Z,100059.34
2022-07-29T08:17:25.661Z,100016.31
2022-07-29T08:19:56.121Z,100024.28
2022-07-29T08:22:24.739Z,100076.22
2022-07-29T08:24:57.359Z,99985.47
2022-07-29T08:27:44.781Z,100062.47
2022-07-29T08:30:20.862Z,99998.78
2022-07-29T08:32:55.215Z,99988.97
2022-07-29T08:35:26.406Z,99944.00
2022-07-29T08:37:59.464Z,99951.31
2022-07-29T08:40:32.514Z,100037.38
2022-07-29T08:43:07.471Z,100034.56
2022-07-29T08:45:48.174Z,100015.31
2022-07-29T08:48:18.171Z,100008.94
2022-07-29T08:50:48.244Z,100006.22
2022-07-29T08:53:19.379Z,100046.19
2022-07-29T08:55:49.814Z,100035.28
2022-07-29T08:58:21.630Z,100041.97
2022-07-29T09:00:55.599Z,99939.88
2022-07-29T09:03:47.699Z,100013.88
2022-07-29T09:06:16.992Z,99993.88
2022-07-29T09:08:46.658Z,99967.31
2022-07-29T09:11:15.850Z,99963.03
2022-07-29T09:13:45.828Z,99996.94
2022-07-29T09:16:26.751Z,99958.22
2022-07-29T09:19:03.256Z,100010.47
2022-07-29T09:22:03.078Z,100008.78
2022-07-29T09:24:43.957Z,99958.53
2022-07-29T09:27:24.151Z,100004.81
2022-07-29T09:30:01.739Z,99997.34
2022-07-29T09:32:30.755Z,99944.22
2022-07-29T09:35:22.271Z,100014.06
2022-07-29T09:37:51.388Z,99945.44
2022-07-29T09:40:22.303Z,100000.81
2022-07-29T09:42:51.900Z,99976.91
2022-07-29T09:45:31.598Z,99953.69
2022-07-29T09:48:04.029Z,99987.41
2022-07-29T09:50:41.101Z,99947.09
2022-07-29T09:53:11.256Z,100003.09
2022-07-29T09:55:51.714Z,99936.75
2022-07-29T09:58:21.658Z,99993.41
2022-07-29T10:00:53.550Z,100007.63
2022-07-29T10:03:22.566Z,99961.97
2022-07-29T10:06:07.714Z,99989.09
2022-07-29T10:08:36.276Z,100013.84
2022-07-29T10:11:13.250Z,99999.81
2022-07-29T10:13:43.219Z,99997.09
2022-07-29T10:16:14.285Z,99980.41
2022-07-29T10:18:44.656Z,99936.47
2022-07-29T10:21:34.981Z,99998.47
2022-07-29T10:24:02.292Z,99947.22
2022-07-29T10:26:31.771Z,99987.66
2022-07-29T10:29:00.728Z,99941.16
2022-07-29T10:31:41.141Z,99904.53
2022-07-29T10:34:17.939Z,99940.03
2022-07-29T10:36:59.060Z,99966.44
2022-07-29T10:39:41.664Z,99977.34
2022-07-29T10:42:20.127Z,99912.97
2022-07-29T10:44:49.606Z,99893.94
2022-07-29T10:47:27.659Z,99941.16
2022-07-29T10:50:01.679Z,99932.28
2022-07-29T10:52:55.514Z,99964.69
2022-07-29T10:55:43.376Z,99909.03
2022-07-29T10:58:18.859Z,99950.97
2022-07-29T11:00:49.360Z,99928.63
2022-07-29T11:03:50.690Z,99946.25
2022-07-29T11:06:26.835Z,99942.38
2022-07-29T11:09:20.125Z,99953.00
2022-07-29T11:11:58.179Z,99945.06
2022-07-29T11:15:00.343Z,99929.03
2022-07-29T11:17:53.221Z,99944.13
2022-07-29T11:20:38.592Z,99943.16
2022-07-29T11:23:26.281Z,99941.31
2022-07-29T11:26:18.558Z,99938.72
2022-07-29T11:29:01.798Z,99928.59
2022-07-29T11:31:42.672Z,99845.63
2022-07-29T11:34:23.018Z,99889.59
2022-07-29T11:37:27.724Z,99942.69
2022-07-29T11:40:18.594Z,99932.31
2022-07-29T11:42:51.957Z,99919.22
2022-07-29T11:45:41.538Z,99914.03
2022-07-29T11:48:29.821Z,99923.78
2022-07-29T11:51:02.971Z,99856.25
2022-07-29T11:53:33.447Z,99831.19
2022-07-29T11:56:03.873Z,99910.66
2022-07-29T11:58:33.808Z,99869.63
2022-07-29T12:01:04.466Z,99913.38
2022-07-29T12:03:36.836Z,99905.06
2022-07-29T12:06:14.884Z,99842.56
2022-07-29T12:08:45.905Z,99906.69
2022-07-29T12:11:20.914Z,99881.75
2022-07-29T12:13:51.371Z,99896.44
2022-07-29T12:16:25.558Z,99899.72
2022-07-29T12:19:02.878Z,99871.41
2022-07-29T12:21:32.272Z,99816.28
2022-07-29T12:24:08.939Z,99898.66
2022-07-29T12:26:40.389Z,99831.22
2022-07-29T12:29:15.412Z,99820.06
2022-07-29T12:31:45.500Z,99788.03
2022-07-29T12:34:15.836Z,99883.69
2022-07-29T12:36:45.095Z,99830.94
2022-07-29T12:39:15.196Z,99880.19
2022-07-29T12:41:44.246Z,99793.13
2022-07-29T12:44:13.412Z,99801.00
2022-07-29T12:46:42.187Z,99752.84
2022-07-29T12:49:10.962Z,99789.31
2022-07-29T12:51:42.235Z,99841.03
2022-07-29T12:54:12.638Z,99787.28
2022-07-29T12:56:45.282Z,99794.13
2022-07-29T12:59:19.592Z,99837.16
2022-07-29T13:01:50.490Z,99805.56
2022-07-29T13:04:29.727Z,99851.84
2022-07-29T13:07:04.580Z,99867.66
2022-07-29T13:09:41.423Z,99850.25
2022-07-29T13:12:12.818Z,99851.34
2022-07-29T13:14:43.016Z,99832.03
2022-07-29T13:17:13.584Z,99833.94
2022-07-29T13:19:44.134Z,99851.34
2022-07-29T13:22:13.944Z,99836.34
2022-07-29T13:24:53.543Z,99743.03
2022-07-29T13:27:24.943Z,99855.56
2022-07-29T13:29:54.113Z,99863.09
2022-07-29T13:32:27.755Z,99767.06
2022-07-29T13:34:58.415Z,99862.22
2022-07-29T13:37:30.840Z,99845.97
2022-07-29T13:40:00.429Z,99852.66
2022-07-29T13:42:30.640Z,99734.16
2022-07-29T13:44:59.406Z,99853.22
2022-07-29T13:47:32.268Z,99853.13
2022-07-29T13:50:01.961Z,99849.09
2022-07-29T13:52:30.550Z,99849.63
2022-07-29T13:54:59.408Z,99836.56
2022-07-29T13:57:29.705Z,99763.97
2022-07-29T13:59:58.644Z,99801.53
2022-07-29T14:02:28.073Z,99847.44
2022-07-29T14:04:56.813Z,99841.63
2022-07-29T14:07:25.507Z,99778.22
2022-07-29T14:09:54.388Z,99824.03
2022-07-29T14:12:23.669Z,99843.94
2022-07-29T14:14:53.597Z,99838.16
2022-07-29T14:17:22.142Z,99818.56
2022-07-29T14:19:51.001Z,99792.88
2022-07-29T14:22:22.317Z,99841.88
2022-07-29T14:24:54.755Z,99837.56
2022-07-29T14:27:37.238Z,99786.91
2022-07-29T14:30:10.399Z,99801.19
2022-07-29T14:32:38.966Z,99824.88
2022-07-29T14:35:08.936Z,99822.06
2022-07-29T14:37:40.581Z,99820.16
2022-07-29T14:40:10.811Z,99823.75
2022-07-29T14:42:40.039Z,99820.00
2022-07-29T14:45:11.398Z,99825.72
2022-07-29T14:47:40.892Z,99812.31
2022-07-29T14:50:10.391Z,99796.41
2022-07-29T14:52:38.897Z,99813.59
2022-07-29T14:55:16.412Z,99813.28
2022-07-29T14:57:54.336Z,99819.06
2022-07-29T15:00:30.244Z,99745.09
2022-07-29T15:03:02.256Z,99790.28
2022-07-29T15:05:32.218Z,99808.22
2022-07-29T15:08:01.708Z,99804.97
2022-07-29T15:10:30.808Z,99776.94
2022-07-29T15:13:00.074Z,99659.47
2022-07-29T15:15:30.018Z,99780.41
2022-07-29T15:17:58.539Z,99779.38
2022-07-29T15:20:28.211Z,99764.47
2022-07-29T15:22:57.188Z,99793.06
2022-07-29T15:25:26.477Z,99794.34
2022-07-29T15:28:01.335Z,99779.78
2022-07-29T15:30:33.358Z,99774.88
2022-07-29T15:33:03.604Z,99768.34
2022-07-29T15:35:32.403Z,99731.88
2022-07-29T15:38:00.973Z,99792.56
2022-07-29T15:40:30.144Z,99762.41
2022-07-29T15:43:01.798Z,99787.72
2022-07-29T15:45:36.082Z,99693.16
2022-07-29T15:48:07.795Z,99786.56
2022-07-29T15:50:37.066Z,99774.34
2022-07-29T15:53:05.531Z,99782.25
2022-07-29T15:55:34.023Z,99779.84
2022-07-29T15:58:02.785Z,99749.31
2022-07-29T16:00:33.949Z,99765.41
2022-07-29T16:03:02.515Z,99791.03
2022-07-29T16:05:31.050Z,99766.22
2022-07-29T16:08:00.770Z,99793.81
2022-07-29T16:10:29.831Z,99794.06
2022-07-29T16:12:58.455Z,99764.94
2022-07-29T16:15:27.346Z,99760.56
2022-07-29T16:17:57.310Z,99774.69
2022-07-29T16:20:25.962Z,99788.75
2022-07-29T16:22:55.039Z,99791.69
2022-07-29T16:25:38.340Z,99754.13
2022-07-29T16:28:12.256Z,99769.81
2022-07-29T16:30:41.461Z,99781.19
2022-07-29T16:33:11.336Z,99776.72
2022-07-29T16:35:40.512Z,99772.75
2022-07-29T16:38:09.069Z,99761.00
2022-07-29T16:40:37.564Z,99736.78
2022-07-29T16:43:06.465Z,99778.47
2022-07-29T16:45:42.559Z,99728.63
2022-07-29T16:48:18.014Z,99775.63
2022-07-29T16:50:47.815Z,99772.31
2022-07-29T16:53:16.389Z,99752.09
2022-07-29T16:55:44.945Z,99720.44
2022-07-29T16:58:13.737Z,99761.31
2022-07-29T17:00:42.645Z,99748.13
2022-07-29T17:03:11.424Z,99743.84
2022-07-29T17:05:52.638Z,99723.72
2022-07-29T17:08:23.120Z,99763.13
2022-07-29T17:10:52.306Z,99696.69
2022-07-29T17:13:21.053Z,99750.59
2022-07-29T17:15:49.621Z,99750.38
2022-07-29T17:18:18.471Z,99762.88
2022-07-29T17:20:48.394Z,99765.59
2022-07-29T17:23:16.949Z,99753.13
2022-07-29T17:25:45.506Z,99739.50
2022-07-29T17:28:14.052Z,99728.97
2022-07-29T17:30:42.824Z,99763.56
2022-07-29T17:33:11.407Z,99760.81
2022-07-29T17:35:57.626Z,99772.41
2022-07-29T17:38:27.626Z,99674.38
2022-07-29T17:40:56.577Z,99768.78
2022-07-29T17:43:25.068Z,99762.91
2022-07-29T17:45:56.858Z,99764.44
2022-07-29T17:48:28.075Z,99754.22
2022-07-29T17:50:58.006Z,99753.34
2022-07-29T17:53:27.999Z,99647.31
2022-07-29T17:55:58.235Z,99768.91
2022-07-29T17:58:27.542Z,99712.78
2022-07-29T18:00:56.114Z,99700.84
2022-07-29T18:03:25.205Z,99690.91
2022-07-29T18:05:53.935Z,99768.66
2022-07-29T18:08:22.483Z,99704.94
2022-07-29T18:10:52.838Z,99680.59
2022-07-29T18:13:21.749Z,99751.75
2022-07-29T18:15:50.386Z,99737.19
2022-07-29T18:18:19.769Z,99747.13
2022-07-29T18:20:48.627Z,99760.00
2022-07-29T18:23:18.044Z,99773.06
2022-07-29T18:25:46.650Z,99763.34
2022-07-29T18:28:16.834Z,99772.66
2022-07-29T18:30:46.341Z,99751.97
2022-07-29T18:33:22.023Z,99778.91
2022-07-29T18:36:11.001Z,99706.72
2022-07-29T18:38:41.001Z,99767.50
2022-07-29T18:41:09.532Z,99766.06
2022-07-29T18:43:39.859Z,99775.06
2022-07-29T18:46:08.423Z,99666.44
2022-07-29T18:48:37.419Z,99765.66
2022-07-29T18:51:09.287Z,99743.66
2022-07-29T18:53:38.336Z,99755.44
2022-07-29T18:56:06.997Z,99764.53
2022-07-29T18:58:37.203Z,99677.56
2022-07-29T19:01:07.288Z,99647.81
2022-07-29T19:03:35.863Z,99650.25
2022-07-29T19:06:04.412Z,99710.78
2022-07-29T19:08:33.595Z,99735.81
2022-07-29T19:11:02.388Z,99781.50
2022-07-29T19:13:31.101Z,99644.75
2022-07-29T19:15:59.754Z,99746.69
2022-07-29T19:18:29.715Z,99771.13
2022-07-29T19:20:58.300Z,99775.03
2022-07-29T19:23:26.906Z,99756.56
2022-07-29T19:25:55.399Z,99777.66
2022-07-29T19:28:23.919Z,99668.44
2022-07-29T19:30:52.703Z,99727.91
2022-07-29T19:33:21.382Z,99778.59
2022-07-29T19:35:54.951Z,99745.47
2022-07-29T19:38:23.988Z,99781.19
2022-07-29T19:40:52.574Z,99711.34
2022-07-29T19:43:52.136Z,99718.13
2022-07-29T19:46:09.687Z,99772.44
2022-07-29T19:48:38.327Z,99763.84
2022-07-29T19:51:08.279Z,99705.38
2022-07-29T19:53:36.908Z,99701.09
2022-07-29T19:56:06.024Z,99764.81
2022-07-29T19:58:37.575Z,99762.22
2022-07-29T20:01:10.254Z,99772.53
2022-07-29T20:03:40.945Z,99780.47
2022-07-29T20:06:10.875Z,99721.09
2022-07-29T20:08:39.820Z,99710.03
2022-07-29T20:11:08.780Z,99708.53
2022-07-29T20:13:37.349Z,99778.13
2022-07-29T20:16:08.428Z,99784.41
2022-07-29T20:18:37.033Z,99724.28
2022-07-29T20:21:05.930Z,99737.94
2022-07-29T20:23:35.974Z,99796.59
2022-07-29T20:26:09.232Z,99731.75
2022-07-29T20:28:40.389Z,99800.09
2022-07-29T20:31:09.210Z,99679.94
2022-07-29T20:33:37.773Z,99801.25
2022-07-29T20:36:07.265Z,99746.34
2022-07-29T20:38:37.186Z,99695.09
2022-07-29T20:41:05.818Z,99811.16
2022-07-29T20:43:39.010Z,99751.19
2022-07-29T20:46:08.166Z,99734.44
2022-07-29T20:48:36.799Z,99820.94
2022-07-29T20:51:05.332Z,99748.72
2022-07-29T20:53:34.182Z,99830.50
2022-07-29T20:56:04.183Z,99812.03
2022-07-29T20:58:34.203Z,99832.00
2022-07-29T21:01:03.045Z,99755.41
2022-07-29T21:03:31.778Z,99774.72
2022-07-29T21:06:00.309Z,99827.00
2022-07-29T21:08:29.075Z,99715.47
2022-07-29T21:10:57.890Z,99851.75
2022-07-29T21:13:28.123Z,99843.72
2022-07-29T21:16:02.015Z,99852.66
2022-07-29T21:18:37.163Z,99791.00
2022-07-29T21:21:06.629Z,99854.75
2022-07-29T21:23:35.495Z,99780.97
2022-07-29T21:26:05.687Z,99855.19
2022-07-29T21:28:38.574Z,99859.78
2022-07-29T21:31:09.180Z,99838.22
2022-07-29T21:33:38.294Z,99868.44
2022-07-29T21:36:42.447Z,99862.69
2022-07-29T21:38:57.039Z,99816.63
2022-07-29T21:41:25.829Z,99870.34
2022-07-29T21:43:59.519Z,99778.81
2022-07-29T21:46:29.900Z,99806.78
2022-07-29T21:48:58.506Z,99779.03
2022-07-29T21:51:27.085Z,99862.78
2022-07-29T21:53:55.625Z,99839.75
2022-07-29T21:56:27.627Z,99864.03
2022-07-29T21:59:02.748Z,99865.66
2022-07-29T22:01:38.844Z,99807.22
2022-07-29T22:04:07.889Z,99794.25
2022-07-29T22:06:36.634Z,99837.91
2022-07-29T22:09:05.579Z,99798.97
2022-07-29T22:11:36.134Z,99802.69
2022-07-29T22:14:07.453Z,99872.69
2022-07-29T22:16:36.121Z,99880.94
2022-07-29T22:19:05.033Z,99881.31
2022-07-29T22:21:33.869Z,99789.06
2022-07-29T22:24:02.925Z,99822.16
2022-07-29T22:26:31.568Z,99887.84
2022-07-29T22:29:00.607Z,99749.44
2022-07-29T22:31:30.563Z,99863.75
2022-07-29T22:33:59.030Z,99872.97
2022-07-29T22:36:27.697Z,99809.72
2022-07-29T22:38:56.365Z,99805.78
2022-07-29T22:41:24.937Z,99821.78
2022-07-29T22:43:53.491Z,99872.63
2022-07-29T22:46:22.363Z,99870.75
2022-07-29T22:48:52.365Z,99794.94
2022-07-29T22:51:20.933Z,99817.59
2022-07-29T22:53:49.503Z,99792.47
2022-07-29T22:56:19.076Z,99815.31
2022-07-29T22:58:49.165Z,99882.47
2022-07-29T23:01:37.932Z,99887.78
2022-07-29T23:04:08.555Z,99811.22
2022-07-29T23:06:37.468Z,99755.22
2022-07-29T23:09:06.449Z,99803.44
2022-07-29T23:11:35.208Z,99788.59
2022-07-29T23:14:04.113Z,99887.81
2022-07-29T23:16:32.663Z,99838.75
2022-07-29T23:19:01.452Z,99862.25
2022-07-29T23:21:31.453Z,99849.19
2022-07-29T23:24:00.002Z,99898.88
2022-07-29T23:26:28.690Z,99818.28
2022-07-29T23:28:57.219Z,99826.66
2022-07-29T23:31:25.858Z,99833.13
2022-07-29T23:33:54.397Z,99811.81
2022-07-29T23:36:22.967Z,99768.34
2022-07-29T23:38:55.058Z,99890.63
2022-07-29T23:41:23.935Z,99893.63
2022-07-29T23:43:52.417Z,99888.94
2022-07-29T23:46:23.851Z,99815.47
2022-07-29T23:48:52.629Z,99885.16
2022-07-29T23:51:21.296Z,99853.97
2022-07-29T23:53:53.627Z,99829.47
2022-07-29T23:56:24.861Z,99868.97
2022-07-29T23:58:54.479Z,99826.16
